createdAt,value
2022-08-12T00:05:08.345Z,13.3
2022-08-12T00:10:58.556Z,13.3
2022-08-12T00:19:52.896Z,13.3
2022-08-12T01:52:57.058Z,13.3
2022-08-12T01:57:58.431Z,13.5
2022-08-12T02:03:30.231Z,13.5
2022-08-12T02:09:05.329Z,13.5
2022-08-12T02:14:40.677Z,13.5
2022-08-12T02:20:15.248Z,13.5
2022-08-12T02:39:14.185Z,13.5
2022-08-12T02:44:48.994Z,13.5
2022-08-12T02:51:31.108Z,13.5
2022-08-12T02:57:06.134Z,13.5
2022-08-12T03:02:41.225Z,13.5
2022-08-12T03:08:31.832Z,13.5
2022-08-12T03:13:51.115Z,13.6
2022-08-12T03:19:26.139Z,13.6
2022-08-12T03:25:01.172Z,13.5
2022-08-12T03:30:37.224Z,13.6
2022-08-12T03:36:11.151Z,13.6
2022-08-12T03:41:46.120Z,13.6
2022-08-12T03:47:21.211Z,13.6
2022-08-12T03:52:56.138Z,13.6
2022-08-12T03:58:31.138Z,13.6
2022-08-12T04:04:06.201Z,13.6
2022-08-12T04:09:41.158Z,13.6
2022-08-12T04:15:16.229Z,13.6
2022-08-12T04:20:51.255Z,13.5
2022-08-12T04:26:26.206Z,13.5
2022-08-12T04:32:01.213Z,13.5
2022-08-12T04:37:58.363Z,13.5
2022-08-12T04:43:53.950Z,13.4
2022-08-12T04:48:46.207Z,13.4
2022-08-12T04:54:21.259Z,13.3
2022-08-12T04:59:56.232Z,13.4
2022-08-12T05:05:35.731Z,13.4
2022-08-12T05:11:06.275Z,13.4
2022-08-12T05:17:48.399Z,13.5
2022-08-12T05:23:22.880Z,13.5
2022-08-12T05:28:57.902Z,13.6
2022-08-12T05:34:33.937Z,13.6
2022-08-12T05:40:11.274Z,13.6
2022-08-12T05:45:44.832Z,13.6
2022-08-12T05:51:17.938Z,13.7
2022-08-12T05:56:52.926Z,13.7
2022-08-12T06:02:28.256Z,13.8
2022-08-12T06:08:03.293Z,13.8
2022-08-12T06:13:53.742Z,13.9
2022-08-12T06:19:12.992Z,13.9
2022-08-12T06:24:48.043Z,13.9
2022-08-12T06:30:33.659Z,13.9
2022-08-12T06:37:05.059Z,14
2022-08-12T06:42:40.111Z,14
2022-08-12T06:48:15.131Z,14.1
2022-08-12T06:53:50.107Z,14.1
2022-08-12T06:59:25.246Z,14.2
2022-08-12T07:05:00.169Z,14.3
2022-08-12T07:10:35.178Z,14.3
2022-08-12T07:16:10.197Z,14.3
2022-08-12T07:22:02.145Z,14.3
2022-08-12T07:27:20.148Z,14.3
2022-08-12T07:32:59.868Z,14.4
2022-08-12T07:38:30.821Z,14.4
2022-08-12T07:44:05.174Z,14.5
2022-08-12T07:50:05.838Z,14.6
2022-08-12T07:55:15.232Z,14.5
2022-08-12T08:00:50.211Z,14.5
2022-08-12T08:06:25.239Z,14.5
2022-08-12T08:12:00.246Z,14.6
2022-08-12T08:17:35.174Z,14.7
2022-08-12T08:23:10.256Z,14.9
2022-08-12T08:28:45.246Z,15
2022-08-12T08:34:33.514Z,15
2022-08-12T08:39:55.320Z,15
2022-08-12T08:45:30.281Z,15
2022-08-12T08:51:05.264Z,14.9
2022-08-12T08:56:40.310Z,14.9
2022-08-12T09:02:15.347Z,14.9
2022-08-12T09:07:58.308Z,15
2022-08-12T09:13:29.131Z,15.1
2022-08-12T09:18:59.830Z,15.3
2022-08-12T09:24:34.745Z,15.4
2022-08-12T09:30:14.147Z,15.4
2022-08-12T09:35:44.758Z,15.4
2022-08-12T09:42:33.550Z,15.4
2022-08-12T09:46:54.953Z,15.5
2022-08-12T09:52:32.035Z,15.6
2022-08-12T09:58:45.162Z,15.9
2022-08-12T10:04:03.349Z,16.1
2022-08-12T10:09:15.330Z,16.4
2022-08-12T10:14:52.464Z,16.6
2022-08-12T10:20:24.840Z,16.6
2022-08-12T10:26:34.380Z,16.6
2022-08-12T10:32:01.621Z,16.7
2022-08-12T10:37:22.957Z,16.7
2022-08-12T10:42:45.969Z,16.9
2022-08-12T10:48:33.338Z,16.9
2022-08-12T10:54:00.099Z,17.1
2022-08-12T11:00:01.314Z,17.2
2022-08-12T11:07:06.905Z,17.2
2022-08-12T11:12:35.713Z,17.2
2022-08-12T11:17:52.102Z,17.1
2022-08-12T11:22:58.657Z,16.9
2022-08-12T11:28:33.281Z,17
2022-08-12T11:34:51.517Z,17.1
2022-08-12T11:40:03.009Z,17.1
2022-08-12T11:45:17.631Z,17
2022-08-12T11:50:52.078Z,17.1
2022-08-12T11:56:38.901Z,17
2022-08-12T12:02:06.098Z,17
2022-08-12T12:08:41.351Z,17.1
2022-08-12T12:13:23.161Z,17.1
2022-08-12T12:18:47.101Z,17.1
2022-08-12T12:24:22.538Z,17
2022-08-12T12:30:19.044Z,16.9
2022-08-12T12:36:16.542Z,17
2022-08-12T12:41:16.704Z,17.1
2022-08-12T12:46:42.220Z,17.2
2022-08-12T12:52:19.694Z,17.3
2022-08-12T12:58:00.652Z,17.4
2022-08-12T13:03:26.753Z,17.7
2022-08-12T13:10:08.809Z,18
2022-08-12T13:15:47.801Z,18.2
2022-08-12T13:21:36.434Z,18.4
2022-08-12T13:28:00.934Z,18.5
2022-08-12T13:34:32.838Z,18.4
2022-08-12T13:39:11.224Z,18.3
2022-08-12T13:44:46.316Z,18.3
2022-08-12T13:51:41.249Z,18.2
2022-08-12T13:57:03.070Z,18.1
2022-08-12T14:02:38.148Z,18.1
2022-08-12T14:08:13.113Z,18.1
2022-08-12T14:14:05.124Z,17.7
2022-08-12T14:19:26.548Z,17.6
2022-08-12T14:24:58.168Z,17.6
2022-08-12T14:32:46.870Z,17.8
2022-08-12T14:38:26.075Z,17.7
2022-08-12T14:44:04.435Z,17.7
2022-08-12T14:50:33.718Z,17.8
2022-08-12T15:00:45.916Z,18.1
2022-08-12T15:06:44.061Z,18
2022-08-12T15:11:55.533Z,17.9
2022-08-12T15:17:38.005Z,17.8
2022-08-12T15:23:01.859Z,17.6
2022-08-12T15:28:36.817Z,17.5
2022-08-12T15:35:18.939Z,17.5
2022-08-12T15:40:54.047Z,17.4
2022-08-12T15:46:29.051Z,17.4
2022-08-12T15:52:05.327Z,17.4
2022-08-12T15:57:38.987Z,17.4
2022-08-12T16:03:19.272Z,17.3
2022-08-12T16:08:49.021Z,17.3
2022-08-12T16:14:24.778Z,17.4
2022-08-12T16:20:04.916Z,17.4
2022-08-12T16:26:02.826Z,17.5
2022-08-12T16:31:09.757Z,17.5
2022-08-12T16:36:43.538Z,17.6
2022-08-12T16:42:18.580Z,17.6
2022-08-12T16:47:58.170Z,17.7
2022-08-12T16:53:30.877Z,17.7
2022-08-12T16:59:03.539Z,17.8
2022-08-12T17:04:38.615Z,17.8
2022-08-12T17:10:13.617Z,17.9
2022-08-12T17:15:57.916Z,17.8
2022-08-12T17:21:41.225Z,17.8
2022-08-12T17:26:58.678Z,17.9
2022-08-12T17:32:33.797Z,18
2022-08-12T17:38:08.753Z,18
2022-08-12T17:43:56.295Z,18
2022-08-12T17:50:01.482Z,18
2022-08-12T17:54:53.685Z,18
2022-08-12T18:00:29.190Z,18
2022-08-12T18:06:08.585Z,18
2022-08-12T18:12:04.383Z,18
2022-08-12T18:17:13.818Z,18.1
2022-08-12T18:22:48.762Z,18.1
2022-08-12T18:28:29.326Z,18.1
2022-08-12T18:34:00.810Z,18.1
2022-08-12T18:40:40.814Z,17.8
2022-08-12T18:46:15.828Z,17.5
2022-08-12T18:51:51.808Z,17.3
2022-08-12T18:57:45.741Z,17.2
2022-08-12T19:03:06.027Z,17.1
2022-08-12T19:08:35.972Z,17
2022-08-12T19:14:11.056Z,16.9
2022-08-12T19:19:46.055Z,16.7
2022-08-12T19:25:21.007Z,16.6
2022-08-12T19:30:56.178Z,16.5
2022-08-12T19:36:30.998Z,16.4
2022-08-12T19:42:06.070Z,16.3
2022-08-12T19:47:40.977Z,16.3
2022-08-12T19:53:18.828Z,16.2
2022-08-12T19:58:51.456Z,16.1
2022-08-12T20:04:25.786Z,16
2022-08-12T20:10:00.590Z,15.9
2022-08-12T20:15:44.274Z,15.8
2022-08-12T20:21:15.174Z,15.7
2022-08-12T20:28:02.656Z,15.6
2022-08-12T20:33:32.676Z,15.6
2022-08-12T20:39:02.671Z,15.5
2022-08-12T20:44:37.710Z,15.5
2022-08-12T20:50:12.641Z,15.4
2022-08-12T20:55:56.993Z,15.4
2022-08-12T21:01:26.659Z,15.4
2022-08-12T21:06:57.623Z,15.4
2022-08-12T21:12:34.183Z,15.3
2022-08-12T21:18:11.170Z,15.3
2022-08-12T21:23:42.594Z,15.3
2022-08-12T21:29:17.577Z,15.2
2022-08-12T21:34:52.662Z,15.2
2022-08-12T21:40:37.462Z,15.2
2022-08-12T21:46:02.679Z,15.2
2022-08-12T21:51:50.113Z,15.2
2022-08-12T21:57:12.630Z,15.1
2022-08-12T22:02:48.549Z,15.1
2022-08-12T22:08:26.123Z,15
2022-08-12T22:14:04.192Z,15
2022-08-12T22:19:34.836Z,15
2022-08-12T22:25:07.674Z,15
2022-08-12T22:30:42.690Z,14.9
2022-08-12T22:36:21.333Z,14.9
2022-08-12T22:41:56.720Z,14.8
2022-08-12T22:47:53.727Z,14.7
2022-08-12T22:53:02.788Z,14.7
2022-08-12T22:58:40.489Z,14.8
2022-08-12T23:04:12.758Z,14.8
2022-08-12T23:09:48.829Z,14.8
2022-08-12T23:15:27.148Z,14.8
2022-08-12T23:20:57.746Z,14.8
2022-08-12T23:26:32.790Z,14.8
2022-08-12T23:32:10.003Z,14.7
2022-08-12T23:37:47.707Z,14.6
2022-08-12T23:43:17.327Z,14.6
2022-08-12T23:48:52.822Z,14.5
2022-08-12T23:54:38.646Z,14.4
